sensor_id;sensor_type;location;lat;lon;timestamp;P1;durP1;ratioP1;P2;durP2;ratioP2
48124;SDS011;33908;47.436;18.918;2023-08-06T00:00:42;0.60;;;0.60;;
48124;SDS011;33908;47.436;18.918;2023-08-06T00:03:10;1.30;;;0.90;;
48124;SDS011;33908;47.436;18.918;2023-08-06T00:05:41;1.05;;;1.05;;
48124;SDS011;33908;47.436;18.918;2023-08-06T00:08:09;0.30;;;0.30;;
48124;SDS011;33908;47.436;18.918;2023-08-06T00:10:39;0.75;;;0.75;;
48124;SDS011;33908;47.436;18.918;2023-08-06T00:13:07;1.00;;;0.98;;
48124;SDS011;33908;47.436;18.918;2023-08-06T00:15:34;2.83;;;1.10;;
48124;SDS011;33908;47.436;18.918;2023-08-06T00:18:02;0.68;;;0.60;;
48124;SDS011;33908;47.436;18.918;2023-08-06T00:20:30;1.25;;;1.00;;
48124;SDS011;33908;47.436;18.918;2023-08-06T00:22:58;1.25;;;0.90;;
48124;SDS011;33908;47.436;18.918;2023-08-06T00:25:25;1.77;;;0.68;;
48124;SDS011;33908;47.436;18.918;2023-08-06T00:27:53;1.02;;;0.98;;
48124;SDS011;33908;47.436;18.918;2023-08-06T00:30:21;2.08;;;1.30;;
48124;SDS011;33908;47.436;18.918;2023-08-06T00:32:50;1.92;;;1.65;;
48124;SDS011;33908;47.436;18.918;2023-08-06T00:35:17;2.67;;;1.52;;
48124;SDS011;33908;47.436;18.918;2023-08-06T00:37:45;1.10;;;0.93;;
48124;SDS011;33908;47.436;18.918;2023-08-06T00:40:13;1.45;;;0.98;;
48124;SDS011;33908;47.436;18.918;2023-08-06T00:42:41;1.20;;;0.98;;
48124;SDS011;33908;47.436;18.918;2023-08-06T00:45:08;1.00;;;1.00;;
48124;SDS011;33908;47.436;18.918;2023-08-06T00:47:36;0.75;;;0.65;;
48124;SDS011;33908;47.436;18.918;2023-08-06T00:50:07;1.05;;;0.70;;
48124;SDS011;33908;47.436;18.918;2023-08-06T00:52:35;1.50;;;1.40;;
48124;SDS011;33908;47.436;18.918;2023-08-06T00:55:05;12.88;;;1.98;;
48124;SDS011;33908;47.436;18.918;2023-08-06T00:57:33;1.23;;;0.88;;
48124;SDS011;33908;47.436;18.918;2023-08-06T01:00:01;1.10;;;1.08;;
48124;SDS011;33908;47.436;18.918;2023-08-06T01:02:31;1.42;;;1.33;;
48124;SDS011;33908;47.436;18.918;2023-08-06T01:04:59;4.25;;;2.37;;
48124;SDS011;33908;47.436;18.918;2023-08-06T01:07:47;6.95;;;1.55;;
48124;SDS011;33908;47.436;18.918;2023-08-06T01:13:09;0.77;;;0.77;;
48124;SDS011;33908;47.436;18.918;2023-08-06T01:15:49;0.50;;;0.50;;
48124;SDS011;33908;47.436;18.918;2023-08-06T01:18:17;0.68;;;0.68;;
48124;SDS011;33908;47.436;18.918;2023-08-06T01:20:45;2.50;;;0.50;;
48124;SDS011;33908;47.436;18.918;2023-08-06T01:23:13;0.90;;;0.85;;
48124;SDS011;33908;47.436;18.918;2023-08-06T01:25:54;0.62;;;0.62;;
48124;SDS011;33908;47.436;18.918;2023-08-06T01:31:27;1.15;;;1.00;;
48124;SDS011;33908;47.436;18.918;2023-08-06T01:33:59;2.33;;;1.02;;
48124;SDS011;33908;47.436;18.918;2023-08-06T01:36:28;3.60;;;1.95;;
48124;SDS011;33908;47.436;18.918;2023-08-06T01:38:59;0.22;;;0.22;;
48124;SDS011;33908;47.436;18.918;2023-08-06T01:41:27;0.77;;;0.73;;
48124;SDS011;33908;47.436;18.918;2023-08-06T01:43:54;0.88;;;0.82;;
48124;SDS011;33908;47.436;18.918;2023-08-06T01:46:22;2.67;;;0.55;;
48124;SDS011;33908;47.436;18.918;2023-08-06T01:48:50;0.30;;;0.30;;
48124;SDS011;33908;47.436;18.918;2023-08-06T01:51:18;0.65;;;0.60;;
48124;SDS011;33908;47.436;18.918;2023-08-06T01:53:46;0.57;;;0.57;;
48124;SDS011;33908;47.436;18.918;2023-08-06T01:56:13;1.90;;;1.27;;
48124;SDS011;33908;47.436;18.918;2023-08-06T01:58:41;0.55;;;0.20;;
48124;SDS011;33908;47.436;18.918;2023-08-06T02:01:09;0.77;;;0.68;;
48124;SDS011;33908;47.436;18.918;2023-08-06T02:03:37;4.70;;;1.48;;
48124;SDS011;33908;47.436;18.918;2023-08-06T02:06:04;3.37;;;1.23;;
48124;SDS011;33908;47.436;18.918;2023-08-06T02:08:32;0.10;;;0.10;;
48124;SDS011;33908;47.436;18.918;2023-08-06T02:11:00;2.15;;;0.55;;
48124;SDS011;33908;47.436;18.918;2023-08-06T02:13:30;0.52;;;0.52;;
48124;SDS011;33908;47.436;18.918;2023-08-06T02:15:58;0.32;;;0.30;;
48124;SDS011;33908;47.436;18.918;2023-08-06T02:18:26;1.05;;;0.45;;
48124;SDS011;33908;47.436;18.918;2023-08-06T02:20:57;2.67;;;0.57;;
48124;SDS011;33908;47.436;18.918;2023-08-06T02:23:25;0.60;;;0.40;;
48124;SDS011;33908;47.436;18.918;2023-08-06T02:26:03;0.13;;;0.13;;
48124;SDS011;33908;47.436;18.918;2023-08-06T02:28:31;0.32;;;0.32;;
48124;SDS011;33908;47.436;18.918;2023-08-06T02:31:00;1.30;;;1.17;;
48124;SDS011;33908;47.436;18.918;2023-08-06T02:33:28;0.60;;;0.60;;
48124;SDS011;33908;47.436;18.918;2023-08-06T02:36:02;0.90;;;0.22;;
48124;SDS011;33908;47.436;18.918;2023-08-06T02:38:33;0.20;;;0.20;;
48124;SDS011;33908;47.436;18.918;2023-08-06T02:41:02;1.00;;;0.73;;
48124;SDS011;33908;47.436;18.918;2023-08-06T02:43:31;0.40;;;0.40;;
48124;SDS011;33908;47.436;18.918;2023-08-06T02:46:00;0.20;;;0.20;;
48124;SDS011;33908;47.436;18.918;2023-08-06T02:48:28;0.28;;;0.28;;
48124;SDS011;33908;47.436;18.918;2023-08-06T02:50:59;0.37;;;0.10;;
48124;SDS011;33908;47.436;18.918;2023-08-06T02:53:28;0.40;;;0.20;;
48124;SDS011;33908;47.436;18.918;2023-08-06T02:55:56;3.37;;;0.80;;
48124;SDS011;33908;47.436;18.918;2023-08-06T02:58:24;0.20;;;0.20;;
48124;SDS011;33908;47.436;18.918;2023-08-06T03:01:01;0.57;;;0.45;;
48124;SDS011;33908;47.436;18.918;2023-08-06T03:03:33;0.60;;;0.60;;
48124;SDS011;33908;47.436;18.918;2023-08-06T03:06:02;0.35;;;0.13;;
48124;SDS011;33908;47.436;18.918;2023-08-06T03:08:30;0.40;;;0.40;;
48124;SDS011;33908;47.436;18.918;2023-08-06T03:10:58;0.13;;;0.13;;
48124;SDS011;33908;47.436;18.918;2023-08-06T03:13:26;0.13;;;0.13;;
48124;SDS011;33908;47.436;18.918;2023-08-06T03:15:55;1.40;;;0.77;;
48124;SDS011;33908;47.436;18.918;2023-08-06T03:18:25;0.10;;;0.10;;
48124;SDS011;33908;47.436;18.918;2023-08-06T03:23:26;0.43;;;0.43;;
48124;SDS011;33908;47.436;18.918;2023-08-06T03:25:54;1.27;;;0.98;;
48124;SDS011;33908;47.436;18.918;2023-08-06T03:28:21;0.55;;;0.55;;
48124;SDS011;33908;47.436;18.918;2023-08-06T03:30:58;0.55;;;0.55;;
48124;SDS011;33908;47.436;18.918;2023-08-06T03:33:30;0.82;;;0.62;;
48124;SDS011;33908;47.436;18.918;2023-08-06T03:35:58;0.55;;;0.55;;
48124;SDS011;33908;47.436;18.918;2023-08-06T03:38:26;1.25;;;1.02;;
48124;SDS011;33908;47.436;18.918;2023-08-06T03:40:55;1.55;;;1.02;;
48124;SDS011;33908;47.436;18.918;2023-08-06T03:43:23;0.37;;;0.37;;
48124;SDS011;33908;47.436;18.918;2023-08-06T03:45:51;0.20;;;0.20;;
48124;SDS011;33908;47.436;18.918;2023-08-06T03:48:19;0.73;;;0.73;;
48124;SDS011;33908;47.436;18.918;2023-08-06T03:50:46;0.57;;;0.57;;
48124;SDS011;33908;47.436;18.918;2023-08-06T03:53:15;0.47;;;0.47;;
48124;SDS011;33908;47.436;18.918;2023-08-06T03:55:43;0.40;;;0.35;;
48124;SDS011;33908;47.436;18.918;2023-08-06T03:58:10;2.40;;;1.33;;
48124;SDS011;33908;47.436;18.918;2023-08-06T04:00:38;0.20;;;0.20;;
48124;SDS011;33908;47.436;18.918;2023-08-06T04:03:07;0.57;;;0.57;;
48124;SDS011;33908;47.436;18.918;2023-08-06T04:05:35;0.40;;;0.40;;
48124;SDS011;33908;47.436;18.918;2023-08-06T04:08:03;1.00;;;1.00;;
48124;SDS011;33908;47.436;18.918;2023-08-06T04:10:30;0.80;;;0.80;;
48124;SDS011;33908;47.436;18.918;2023-08-06T04:13:00;0.43;;;0.30;;
48124;SDS011;33908;47.436;18.918;2023-08-06T04:15:29;0.00;;;0.00;;
48124;SDS011;33908;47.436;18.918;2023-08-06T04:17:57;0.13;;;0.13;;
48124;SDS011;33908;47.436;18.918;2023-08-06T04:20:25;0.62;;;0.45;;
48124;SDS011;33908;47.436;18.918;2023-08-06T04:22:54;0.03;;;0.03;;
48124;SDS011;33908;47.436;18.918;2023-08-06T04:25:22;0.03;;;0.03;;
48124;SDS011;33908;47.436;18.918;2023-08-06T04:27:50;0.22;;;0.22;;
48124;SDS011;33908;47.436;18.918;2023-08-06T04:30:18;0.00;;;0.00;;
48124;SDS011;33908;47.436;18.918;2023-08-06T04:32:46;0.17;;;0.15;;
48124;SDS011;33908;47.436;18.918;2023-08-06T04:35:16;0.13;;;0.13;;
48124;SDS011;33908;47.436;18.918;2023-08-06T04:37:43;0.30;;;0.30;;
48124;SDS011;33908;47.436;18.918;2023-08-06T04:40:11;0.00;;;0.00;;
48124;SDS011;33908;47.436;18.918;2023-08-06T04:42:40;0.47;;;0.43;;
48124;SDS011;33908;47.436;18.918;2023-08-06T04:45:08;0.13;;;0.13;;
48124;SDS011;33908;47.436;18.918;2023-08-06T04:47:36;0.15;;;0.15;;
48124;SDS011;33908;47.436;18.918;2023-08-06T04:50:04;0.10;;;0.10;;
48124;SDS011;33908;47.436;18.918;2023-08-06T04:52:32;0.00;;;0.00;;
48124;SDS011;33908;47.436;18.918;2023-08-06T04:55:00;0.00;;;0.00;;
48124;SDS011;33908;47.436;18.918;2023-08-06T04:57:27;0.00;;;0.00;;
48124;SDS011;33908;47.436;18.918;2023-08-06T04:59:55;0.08;;;0.08;;
48124;SDS011;33908;47.436;18.918;2023-08-06T05:02:23;0.00;;;0.00;;
48124;SDS011;33908;47.436;18.918;2023-08-06T05:04:51;0.00;;;0.00;;
48124;SDS011;33908;47.436;18.918;2023-08-06T05:07:18;0.10;;;0.10;;
48124;SDS011;33908;47.436;18.918;2023-08-06T05:09:47;0.00;;;0.00;;
48124;SDS011;33908;47.436;18.918;2023-08-06T05:12:14;0.00;;;0.00;;
48124;SDS011;33908;47.436;18.918;2023-08-06T05:14:42;0.00;;;0.00;;
48124;SDS011;33908;47.436;18.918;2023-08-06T05:17:10;0.00;;;0.00;;
48124;SDS011;33908;47.436;18.918;2023-08-06T05:19:37;0.00;;;0.00;;
48124;SDS011;33908;47.436;18.918;2023-08-06T05:22:05;0.00;;;0.00;;
48124;SDS011;33908;47.436;18.918;2023-08-06T05:24:33;0.08;;;0.00;;
48124;SDS011;33908;47.436;18.918;2023-08-06T05:27:00;0.00;;;0.00;;
48124;SDS011;33908;47.436;18.918;2023-08-06T05:29:28;0.00;;;0.00;;
48124;SDS011;33908;47.436;18.918;2023-08-06T05:31:56;0.00;;;0.00;;
48124;SDS011;33908;47.436;18.918;2023-08-06T05:34:24;0.00;;;0.00;;
48124;SDS011;33908;47.436;18.918;2023-08-06T05:36:52;0.00;;;0.00;;
48124;SDS011;33908;47.436;18.918;2023-08-06T05:39:20;0.00;;;0.00;;
48124;SDS011;33908;47.436;18.918;2023-08-06T05:41:47;0.00;;;0.00;;
48124;SDS011;33908;47.436;18.918;2023-08-06T05:44:15;0.00;;;0.00;;
48124;SDS011;33908;47.436;18.918;2023-08-06T05:46:43;0.00;;;0.00;;
48124;SDS011;33908;47.436;18.918;2023-08-06T05:49:10;0.10;;;0.00;;
48124;SDS011;33908;47.436;18.918;2023-08-06T05:51:40;0.17;;;0.17;;
48124;SDS011;33908;47.436;18.918;2023-08-06T05:54:07;0.00;;;0.00;;
48124;SDS011;33908;47.436;18.918;2023-08-06T05:56:35;0.00;;;0.00;;
48124;SDS011;33908;47.436;18.918;2023-08-06T05:59:03;0.00;;;0.00;;
48124;SDS011;33908;47.436;18.918;2023-08-06T06:01:31;0.00;;;0.00;;
48124;SDS011;33908;47.436;18.918;2023-08-06T06:03:59;0.30;;;0.30;;
48124;SDS011;33908;47.436;18.918;2023-08-06T06:06:27;0.00;;;0.00;;
48124;SDS011;33908;47.436;18.918;2023-08-06T06:08:54;0.00;;;0.00;;
48124;SDS011;33908;47.436;18.918;2023-08-06T06:11:23;0.00;;;0.00;;
48124;SDS011;33908;47.436;18.918;2023-08-06T06:13:51;0.00;;;0.00;;
48124;SDS011;33908;47.436;18.918;2023-08-06T06:16:19;0.00;;;0.00;;
48124;SDS011;33908;47.436;18.918;2023-08-06T06:18:47;0.00;;;0.00;;
48124;SDS011;33908;47.436;18.918;2023-08-06T06:21:15;0.00;;;0.00;;
48124;SDS011;33908;47.436;18.918;2023-08-06T06:23:43;0.00;;;0.00;;
48124;SDS011;33908;47.436;18.918;2023-08-06T06:26:12;0.00;;;0.00;;
48124;SDS011;33908;47.436;18.918;2023-08-06T06:28:40;0.00;;;0.00;;
48124;SDS011;33908;47.436;18.918;2023-08-06T06:31:08;0.00;;;0.00;;
48124;SDS011;33908;47.436;18.918;2023-08-06T06:33:37;0.17;;;0.17;;
48124;SDS011;33908;47.436;18.918;2023-08-06T06:36:05;0.10;;;0.10;;
48124;SDS011;33908;47.436;18.918;2023-08-06T06:38:38;0.00;;;0.00;;
48124;SDS011;33908;47.436;18.918;2023-08-06T06:41:06;0.15;;;0.10;;
48124;SDS011;33908;47.436;18.918;2023-08-06T06:43:34;0.10;;;0.10;;
48124;SDS011;33908;47.436;18.918;2023-08-06T06:46:02;0.00;;;0.00;;
48124;SDS011;33908;47.436;18.918;2023-08-06T06:48:31;0.00;;;0.00;;
48124;SDS011;33908;47.436;18.918;2023-08-06T06:51:04;0.00;;;0.00;;
48124;SDS011;33908;47.436;18.918;2023-08-06T06:53:32;0.00;;;0.00;;
48124;SDS011;33908;47.436;18.918;2023-08-06T06:56:04;0.00;;;0.00;;
48124;SDS011;33908;47.436;18.918;2023-08-06T06:58:32;0.00;;;0.00;;
48124;SDS011;33908;47.436;18.918;2023-08-06T07:01:15;0.00;;;0.00;;
48124;SDS011;33908;47.436;18.918;2023-08-06T07:03:46;0.00;;;0.00;;
48124;SDS011;33908;47.436;18.918;2023-08-06T07:06:21;0.00;;;0.00;;
48124;SDS011;33908;47.436;18.918;2023-08-06T07:08:52;0.10;;;0.10;;
48124;SDS011;33908;47.436;18.918;2023-08-06T07:11:29;0.00;;;0.00;;
48124;SDS011;33908;47.436;18.918;2023-08-06T07:14:03;0.00;;;0.00;;
48124;SDS011;33908;47.436;18.918;2023-08-06T07:16:46;0.00;;;0.00;;
48124;SDS011;33908;47.436;18.918;2023-08-06T07:23:06;0.00;;;0.00;;
48124;SDS011;33908;47.436;18.918;2023-08-06T07:26:11;0.00;;;0.00;;
48124;SDS011;33908;47.436;18.918;2023-08-06T07:28:44;0.00;;;0.00;;
48124;SDS011;33908;47.436;18.918;2023-08-06T07:32:01;0.00;;;0.00;;
48124;SDS011;33908;47.436;18.918;2023-08-06T07:34:43;0.08;;;0.08;;
48124;SDS011;33908;47.436;18.918;2023-08-06T07:37:11;0.00;;;0.00;;
48124;SDS011;33908;47.436;18.918;2023-08-06T07:39:38;0.00;;;0.00;;
48124;SDS011;33908;47.436;18.918;2023-08-06T07:42:06;0.00;;;0.00;;
48124;SDS011;33908;47.436;18.918;2023-08-06T07:44:34;0.00;;;0.00;;
48124;SDS011;33908;47.436;18.918;2023-08-06T07:47:02;0.00;;;0.00;;
48124;SDS011;33908;47.436;18.918;2023-08-06T07:49:30;0.00;;;0.00;;
48124;SDS011;33908;47.436;18.918;2023-08-06T07:51:58;0.00;;;0.00;;
48124;SDS011;33908;47.436;18.918;2023-08-06T07:54:26;0.00;;;0.00;;
48124;SDS011;33908;47.436;18.918;2023-08-06T07:56:54;0.10;;;0.05;;
48124;SDS011;33908;47.436;18.918;2023-08-06T07:59:22;0.00;;;0.00;;
48124;SDS011;33908;47.436;18.918;2023-08-06T08:01:50;0.00;;;0.00;;
48124;SDS011;33908;47.436;18.918;2023-08-06T08:04:19;0.00;;;0.00;;
48124;SDS011;33908;47.436;18.918;2023-08-06T08:06:49;1.17;;;0.40;;
48124;SDS011;33908;47.436;18.918;2023-08-06T08:09:17;0.03;;;0.03;;
48124;SDS011;33908;47.436;18.918;2023-08-06T08:11:46;0.00;;;0.00;;
48124;SDS011;33908;47.436;18.918;2023-08-06T08:14:14;0.00;;;0.00;;
48124;SDS011;33908;47.436;18.918;2023-08-06T08:16:42;0.00;;;0.00;;
48124;SDS011;33908;47.436;18.918;2023-08-06T08:19:10;0.00;;;0.00;;
48124;SDS011;33908;47.436;18.918;2023-08-06T08:21:38;0.00;;;0.00;;
48124;SDS011;33908;47.436;18.918;2023-08-06T08:24:06;0.00;;;0.00;;
48124;SDS011;33908;47.436;18.918;2023-08-06T08:26:33;0.00;;;0.00;;
48124;SDS011;33908;47.436;18.918;2023-08-06T08:29:02;0.10;;;0.10;;
48124;SDS011;33908;47.436;18.918;2023-08-06T08:31:29;0.00;;;0.00;;
48124;SDS011;33908;47.436;18.918;2023-08-06T08:33:57;0.00;;;0.00;;
48124;SDS011;33908;47.436;18.918;2023-08-06T08:36:26;0.00;;;0.00;;
48124;SDS011;33908;47.436;18.918;2023-08-06T08:38:54;0.00;;;0.00;;
48124;SDS011;33908;47.436;18.918;2023-08-06T08:41:23;0.00;;;0.00;;
48124;SDS011;33908;47.436;18.918;2023-08-06T08:43:53;0.03;;;0.03;;
48124;SDS011;33908;47.436;18.918;2023-08-06T08:46:21;0.20;;;0.10;;
48124;SDS011;33908;47.436;18.918;2023-08-06T08:48:53;0.00;;;0.00;;
48124;SDS011;33908;47.436;18.918;2023-08-06T08:51:22;1.10;;;0.20;;
48124;SDS011;33908;47.436;18.918;2023-08-06T08:53:51;0.00;;;0.00;;
48124;SDS011;33908;47.436;18.918;2023-08-06T08:56:20;0.00;;;0.00;;
48124;SDS011;33908;47.436;18.918;2023-08-06T08:58:51;0.10;;;0.00;;
48124;SDS011;33908;47.436;18.918;2023-08-06T09:01:21;0.40;;;0.40;;
48124;SDS011;33908;47.436;18.918;2023-08-06T09:03:50;0.10;;;0.10;;
48124;SDS011;33908;47.436;18.918;2023-08-06T09:06:19;0.00;;;0.00;;
48124;SDS011;33908;47.436;18.918;2023-08-06T09:08:51;0.10;;;0.10;;
48124;SDS011;33908;47.436;18.918;2023-08-06T09:11:30;0.00;;;0.00;;
48124;SDS011;33908;47.436;18.918;2023-08-06T09:14:07;0.43;;;0.10;;
48124;SDS011;33908;47.436;18.918;2023-08-06T09:16:36;0.00;;;0.00;;
48124;SDS011;33908;47.436;18.918;2023-08-06T09:19:10;0.10;;;0.10;;
48124;SDS011;33908;47.436;18.918;2023-08-06T09:21:53;0.10;;;0.10;;
48124;SDS011;33908;47.436;18.918;2023-08-06T09:24:26;0.00;;;0.00;;
48124;SDS011;33908;47.436;18.918;2023-08-06T09:26:57;0.10;;;0.10;;
48124;SDS011;33908;47.436;18.918;2023-08-06T09:29:32;0.10;;;0.00;;
48124;SDS011;33908;47.436;18.918;2023-08-06T09:32:03;0.00;;;0.00;;
48124;SDS011;33908;47.436;18.918;2023-08-06T09:34:31;0.00;;;0.00;;
48124;SDS011;33908;47.436;18.918;2023-08-06T09:36:59;0.00;;;0.00;;
48124;SDS011;33908;47.436;18.918;2023-08-06T09:39:29;0.00;;;0.00;;
48124;SDS011;33908;47.436;18.918;2023-08-06T09:41:59;0.00;;;0.00;;
48124;SDS011;33908;47.436;18.918;2023-08-06T09:44:29;0.10;;;0.10;;
48124;SDS011;33908;47.436;18.918;2023-08-06T09:46:59;0.95;;;0.40;;
48124;SDS011;33908;47.436;18.918;2023-08-06T09:51:59;0.00;;;0.00;;
48124;SDS011;33908;47.436;18.918;2023-08-06T09:54:27;0.00;;;0.00;;
48124;SDS011;33908;47.436;18.918;2023-08-06T09:56:58;0.08;;;0.08;;
48124;SDS011;33908;47.436;18.918;2023-08-06T09:59:25;0.03;;;0.03;;
48124;SDS011;33908;47.436;18.918;2023-08-06T10:01:54;0.00;;;0.00;;
48124;SDS011;33908;47.436;18.918;2023-08-06T10:04:24;0.00;;;0.00;;
48124;SDS011;33908;47.436;18.918;2023-08-06T10:07:07;0.03;;;0.03;;
48124;SDS011;33908;47.436;18.918;2023-08-06T10:09:36;0.00;;;0.00;;
48124;SDS011;33908;47.436;18.918;2023-08-06T10:12:04;0.00;;;0.00;;
48124;SDS011;33908;47.436;18.918;2023-08-06T10:14:33;0.00;;;0.00;;
48124;SDS011;33908;47.436;18.918;2023-08-06T10:17:04;0.00;;;0.00;;
48124;SDS011;33908;47.436;18.918;2023-08-06T10:22:24;0.00;;;0.00;;
48124;SDS011;33908;47.436;18.918;2023-08-06T10:24:58;0.00;;;0.00;;
48124;SDS011;33908;47.436;18.918;2023-08-06T10:27:39;0.82;;;0.20;;
48124;SDS011;33908;47.436;18.918;2023-08-06T10:32:50;0.00;;;0.00;;
48124;SDS011;33908;47.436;18.918;2023-08-06T10:38:07;0.00;;;0.00;;
48124;SDS011;33908;47.436;18.918;2023-08-06T10:40:37;0.00;;;0.00;;
48124;SDS011;33908;47.436;18.918;2023-08-06T10:43:07;0.00;;;0.00;;
48124;SDS011;33908;47.436;18.918;2023-08-06T10:45:37;0.00;;;0.00;;
48124;SDS011;33908;47.436;18.918;2023-08-06T10:48:05;0.10;;;0.10;;
48124;SDS011;33908;47.436;18.918;2023-08-06T10:50:33;0.40;;;0.32;;
48124;SDS011;33908;47.436;18.918;2023-08-06T10:53:05;0.20;;;0.20;;
48124;SDS011;33908;47.436;18.918;2023-08-06T10:55:33;0.47;;;0.22;;
48124;SDS011;33908;47.436;18.918;2023-08-06T10:58:02;0.28;;;0.28;;
48124;SDS011;33908;47.436;18.918;2023-08-06T11:00:29;0.10;;;0.10;;
48124;SDS011;33908;47.436;18.918;2023-08-06T11:02:57;0.00;;;0.00;;
48124;SDS011;33908;47.436;18.918;2023-08-06T11:05:25;0.10;;;0.10;;
48124;SDS011;33908;47.436;18.918;2023-08-06T11:07:53;1.00;;;0.57;;
48124;SDS011;33908;47.436;18.918;2023-08-06T11:10:21;0.10;;;0.10;;
48124;SDS011;33908;47.436;18.918;2023-08-06T11:12:49;0.10;;;0.10;;
48124;SDS011;33908;47.436;18.918;2023-08-06T11:15:19;0.30;;;0.30;;
48124;SDS011;33908;47.436;18.918;2023-08-06T11:17:48;1.60;;;0.30;;
48124;SDS011;33908;47.436;18.918;2023-08-06T11:20:15;0.57;;;0.08;;
48124;SDS011;33908;47.436;18.918;2023-08-06T11:22:44;0.00;;;0.00;;
48124;SDS011;33908;47.436;18.918;2023-08-06T11:25:12;0.00;;;0.00;;
48124;SDS011;33908;47.436;18.918;2023-08-06T11:27:39;0.00;;;0.00;;
48124;SDS011;33908;47.436;18.918;2023-08-06T11:30:07;0.00;;;0.00;;
48124;SDS011;33908;47.436;18.918;2023-08-06T11:32:45;0.00;;;0.00;;
48124;SDS011;33908;47.436;18.918;2023-08-06T11:35:14;1.40;;;0.37;;
48124;SDS011;33908;47.436;18.918;2023-08-06T11:37:43;0.00;;;0.00;;
48124;SDS011;33908;47.436;18.918;2023-08-06T11:40:14;0.00;;;0.00;;
48124;SDS011;33908;47.436;18.918;2023-08-06T11:42:42;0.00;;;0.00;;
48124;SDS011;33908;47.436;18.918;2023-08-06T11:45:10;0.00;;;0.00;;
48124;SDS011;33908;47.436;18.918;2023-08-06T11:47:38;0.10;;;0.10;;
48124;SDS011;33908;47.436;18.918;2023-08-06T11:50:09;0.00;;;0.00;;
48124;SDS011;33908;47.436;18.918;2023-08-06T11:52:57;0.10;;;0.10;;
48124;SDS011;33908;47.436;18.918;2023-08-06T11:55:26;0.00;;;0.00;;
48124;SDS011;33908;47.436;18.918;2023-08-06T11:57:56;0.20;;;0.20;;
48124;SDS011;33908;47.436;18.918;2023-08-06T12:00:24;0.00;;;0.00;;
48124;SDS011;33908;47.436;18.918;2023-08-06T12:02:53;0.08;;;0.08;;
48124;SDS011;33908;47.436;18.918;2023-08-06T12:05:23;0.25;;;0.20;;
48124;SDS011;33908;47.436;18.918;2023-08-06T12:07:55;0.50;;;0.47;;
48124;SDS011;33908;47.436;18.918;2023-08-06T12:10:24;0.00;;;0.00;;
48124;SDS011;33908;47.436;18.918;2023-08-06T12:12:53;0.17;;;0.17;;
48124;SDS011;33908;47.436;18.918;2023-08-06T12:15:21;0.20;;;0.20;;
48124;SDS011;33908;47.436;18.918;2023-08-06T12:17:50;0.10;;;0.10;;
48124;SDS011;33908;47.436;18.918;2023-08-06T12:20:18;0.00;;;0.00;;
48124;SDS011;33908;47.436;18.918;2023-08-06T12:22:45;0.47;;;0.47;;
48124;SDS011;33908;47.436;18.918;2023-08-06T12:25:14;0.00;;;0.00;;
48124;SDS011;33908;47.436;18.918;2023-08-06T12:27:42;0.10;;;0.10;;
48124;SDS011;33908;47.436;18.918;2023-08-06T12:30:11;0.20;;;0.20;;
48124;SDS011;33908;47.436;18.918;2023-08-06T12:32:40;0.00;;;0.00;;
48124;SDS011;33908;47.436;18.918;2023-08-06T12:35:08;0.00;;;0.00;;
48124;SDS011;33908;47.436;18.918;2023-08-06T12:37:36;0.00;;;0.00;;
48124;SDS011;33908;47.436;18.918;2023-08-06T12:40:06;0.10;;;0.10;;
48124;SDS011;33908;47.436;18.918;2023-08-06T12:42:54;0.10;;;0.10;;
48124;SDS011;33908;47.436;18.918;2023-08-06T12:45:22;0.08;;;0.08;;
48124;SDS011;33908;47.436;18.918;2023-08-06T12:47:49;0.08;;;0.08;;
48124;SDS011;33908;47.436;18.918;2023-08-06T12:50:17;0.55;;;0.37;;
48124;SDS011;33908;47.436;18.918;2023-08-06T12:52:46;0.00;;;0.00;;
48124;SDS011;33908;47.436;18.918;2023-08-06T12:55:13;0.00;;;0.00;;
48124;SDS011;33908;47.436;18.918;2023-08-06T12:57:41;3.50;;;0.52;;
48124;SDS011;33908;47.436;18.918;2023-08-06T13:00:26;0.00;;;0.00;;
48124;SDS011;33908;47.436;18.918;2023-08-06T13:02:54;0.05;;;0.05;;
48124;SDS011;33908;47.436;18.918;2023-08-06T13:05:22;0.10;;;0.10;;
48124;SDS011;33908;47.436;18.918;2023-08-06T13:07:50;0.03;;;0.03;;
48124;SDS011;33908;47.436;18.918;2023-08-06T13:10:17;0.00;;;0.00;;
48124;SDS011;33908;47.436;18.918;2023-08-06T13:12:46;0.00;;;0.00;;
48124;SDS011;33908;47.436;18.918;2023-08-06T13:15:14;0.08;;;0.08;;
48124;SDS011;33908;47.436;18.918;2023-08-06T13:17:44;0.10;;;0.10;;
48124;SDS011;33908;47.436;18.918;2023-08-06T13:20:11;0.10;;;0.10;;
48124;SDS011;33908;47.436;18.918;2023-08-06T13:22:39;0.25;;;0.10;;
48124;SDS011;33908;47.436;18.918;2023-08-06T13:25:07;0.10;;;0.10;;
48124;SDS011;33908;47.436;18.918;2023-08-06T13:27:37;0.00;;;0.00;;
48124;SDS011;33908;47.436;18.918;2023-08-06T13:30:05;0.10;;;0.10;;
48124;SDS011;33908;47.436;18.918;2023-08-06T13:32:33;0.00;;;0.00;;
48124;SDS011;33908;47.436;18.918;2023-08-06T13:35:04;1.50;;;0.20;;
48124;SDS011;33908;47.436;18.918;2023-08-06T13:37:32;0.10;;;0.10;;
48124;SDS011;33908;47.436;18.918;2023-08-06T13:40:04;0.00;;;0.00;;
48124;SDS011;33908;47.436;18.918;2023-08-06T13:42:34;0.00;;;0.00;;
48124;SDS011;33908;47.436;18.918;2023-08-06T13:45:01;0.00;;;0.00;;
48124;SDS011;33908;47.436;18.918;2023-08-06T13:47:31;0.00;;;0.00;;
48124;SDS011;33908;47.436;18.918;2023-08-06T13:49:59;0.00;;;0.00;;
48124;SDS011;33908;47.436;18.918;2023-08-06T13:52:27;0.00;;;0.00;;
48124;SDS011;33908;47.436;18.918;2023-08-06T13:54:55;0.10;;;0.10;;
48124;SDS011;33908;47.436;18.918;2023-08-06T13:57:23;0.10;;;0.10;;
48124;SDS011;33908;47.436;18.918;2023-08-06T13:59:51;0.20;;;0.20;;
48124;SDS011;33908;47.436;18.918;2023-08-06T14:02:22;0.10;;;0.00;;
48124;SDS011;33908;47.436;18.918;2023-08-06T14:04:51;0.55;;;0.15;;
48124;SDS011;33908;47.436;18.918;2023-08-06T14:07:20;0.10;;;0.10;;
48124;SDS011;33908;47.436;18.918;2023-08-06T14:09:48;0.00;;;0.00;;
48124;SDS011;33908;47.436;18.918;2023-08-06T14:12:17;0.00;;;0.00;;
48124;SDS011;33908;47.436;18.918;2023-08-06T14:14:44;0.05;;;0.05;;
48124;SDS011;33908;47.436;18.918;2023-08-06T14:17:12;0.20;;;0.20;;
48124;SDS011;33908;47.436;18.918;2023-08-06T14:19:40;0.22;;;0.22;;
48124;SDS011;33908;47.436;18.918;2023-08-06T14:22:08;1.02;;;0.50;;
48124;SDS011;33908;47.436;18.918;2023-08-06T14:24:35;0.10;;;0.10;;
48124;SDS011;33908;47.436;18.918;2023-08-06T14:27:04;0.00;;;0.00;;
48124;SDS011;33908;47.436;18.918;2023-08-06T14:29:33;0.08;;;0.08;;
48124;SDS011;33908;47.436;18.918;2023-08-06T14:32:01;0.17;;;0.17;;
48124;SDS011;33908;47.436;18.918;2023-08-06T14:34:29;0.00;;;0.00;;
48124;SDS011;33908;47.436;18.918;2023-08-06T14:36:56;0.15;;;0.15;;
48124;SDS011;33908;47.436;18.918;2023-08-06T14:39:24;0.10;;;0.10;;
48124;SDS011;33908;47.436;18.918;2023-08-06T14:41:52;0.00;;;0.00;;
48124;SDS011;33908;47.436;18.918;2023-08-06T14:44:20;0.55;;;0.40;;
48124;SDS011;33908;47.436;18.918;2023-08-06T14:46:47;0.15;;;0.10;;
48124;SDS011;33908;47.436;18.918;2023-08-06T14:49:15;0.45;;;0.37;;
48124;SDS011;33908;47.436;18.918;2023-08-06T14:51:43;0.10;;;0.10;;
48124;SDS011;33908;47.436;18.918;2023-08-06T14:54:10;1.45;;;1.00;;
48124;SDS011;33908;47.436;18.918;2023-08-06T14:56:38;0.00;;;0.00;;
48124;SDS011;33908;47.436;18.918;2023-08-06T14:59:06;0.30;;;0.30;;
48124;SDS011;33908;47.436;18.918;2023-08-06T15:01:33;0.00;;;0.00;;
48124;SDS011;33908;47.436;18.918;2023-08-06T15:04:01;0.00;;;0.00;;
48124;SDS011;33908;47.436;18.918;2023-08-06T15:06:29;0.52;;;0.40;;
48124;SDS011;33908;47.436;18.918;2023-08-06T15:08:56;0.37;;;0.30;;